createdAt,value
2018-09-24T00:04:20.703Z,0.88
2018-09-24T00:14:20.591Z,1.31
2018-09-24T00:24:20.482Z,0.99
2018-09-24T00:34:20.580Z,1.36
2018-09-24T00:44:21.568Z,1.24
2018-09-24T00:54:20.550Z,1.07
2018-09-24T01:04:20.612Z,1.39
2018-09-24T01:14:20.583Z,1.34
2018-09-24T01:24:20.601Z,1.42
2018-09-24T01:34:20.599Z,1.36
2018-09-24T01:44:20.540Z,1.16
2018-09-24T01:54:20.663Z,1.30
2018-09-24T02:04:20.527Z,0.93
2018-09-24T02:14:20.621Z,0.73
2018-09-24T02:24:20.549Z,1.04
2018-09-24T02:34:20.755Z,0.68
2018-09-24T02:44:20.565Z,0.54
2018-09-24T02:54:20.604Z,0.71
2018-09-24T03:04:20.550Z,0.60
2018-09-24T03:14:20.512Z,0.62
2018-09-24T03:24:20.517Z,0.74
2018-09-24T03:34:20.705Z,1.19
2018-09-24T03:44:20.478Z,1.40
2018-09-24T03:54:20.489Z,1.06
2018-09-24T04:04:20.566Z,1.65
2018-09-24T04:14:20.527Z,1.91
2018-09-24T04:24:20.545Z,1.82
2018-09-24T04:34:21.274Z,1.60
2018-09-24T04:44:20.494Z,1.48
2018-09-24T04:54:20.727Z,1.43
2018-09-24T05:04:20.544Z,1.23
2018-09-24T05:14:20.467Z,1.28
2018-09-24T05:24:20.498Z,1.02
2018-09-24T05:34:20.733Z,1.22
2018-09-24T05:44:20.490Z,1.11
2018-09-24T05:54:20.688Z,1.20
2018-09-24T06:04:20.675Z,1.97
2018-09-24T06:14:20.523Z,2.18
2018-09-24T06:24:20.550Z,1.75
2018-09-24T06:34:20.655Z,1.83
2018-09-24T06:44:20.475Z,1.29
2018-09-24T06:54:20.618Z,1.78
2018-09-24T07:04:20.882Z,1.81
2018-09-24T07:14:23.838Z,1.93
2018-09-24T07:24:20.625Z,2.34
2018-09-24T07:34:20.650Z,2.32
2018-09-24T07:44:20.658Z,2.63
2018-09-24T07:54:20.632Z,2.60
2018-09-24T08:04:21.129Z,1.65
2018-09-24T08:14:21.205Z,2.41
2018-09-24T08:24:20.534Z,2.00
2018-09-24T08:34:20.552Z,2.26
2018-09-24T08:44:20.531Z,1.48
2018-09-24T08:54:21.196Z,2.11
2018-09-24T09:04:20.464Z,2.10
2018-09-24T09:14:20.696Z,2.44
2018-09-24T09:24:21.290Z,1.23
2018-09-24T09:34:21.269Z,0.95
2018-09-24T09:44:20.495Z,0.85
2018-09-24T09:54:20.467Z,1.17
2018-09-24T10:04:20.611Z,1.11
2018-09-24T10:14:20.434Z,1.97
2018-09-24T10:24:21.019Z,1.40
2018-09-24T10:34:20.747Z,1.36
2018-09-24T10:44:20.406Z,1.91
2018-09-24T10:54:20.493Z,1.77
2018-09-24T11:04:20.512Z,2.38
2018-09-24T11:14:20.533Z,3.10
2018-09-24T11:24:20.532Z,2.66
2018-09-24T11:34:20.506Z,1.81
2018-09-24T11:44:20.638Z,2.28
2018-09-24T11:54:20.447Z,1.94
2018-09-24T12:04:20.655Z,2.59
2018-09-24T12:14:21.111Z,1.96
2018-09-24T12:37:15.701Z,0.86
2018-09-24T12:47:16.171Z,0.36
2018-09-24T12:57:15.140Z,0.35
2018-09-24T13:07:15.034Z,0.61
2018-09-24T13:17:16.148Z,0.36
2018-09-24T13:27:15.279Z,0.79
2018-09-24T13:37:15.206Z,1.27
2018-09-24T13:47:15.223Z,1.15
2018-09-24T13:57:15.149Z,1.17
2018-09-24T14:07:15.141Z,1.38
2018-09-24T14:17:15.235Z,0.83
2018-09-24T14:27:15.205Z,0.97
2018-09-24T14:37:15.230Z,0.50
2018-09-24T14:47:15.305Z,0.57
2018-09-24T14:57:15.148Z,0.81
2018-09-24T15:07:15.260Z,1.14
2018-09-24T15:17:15.142Z,1.51
2018-09-24T15:27:15.256Z,0.86
2018-09-24T15:37:15.230Z,1.10
2018-09-24T15:47:15.170Z,1.26
2018-09-24T15:57:15.498Z,0.85
2018-09-24T16:07:15.208Z,0.95
2018-09-24T16:17:15.153Z,0.52
2018-09-24T16:27:15.125Z,0.44
2018-09-24T16:37:15.235Z,0.53
2018-09-24T16:47:16.103Z,0.16
2018-09-24T16:57:15.317Z,0.16
2018-09-24T17:07:15.647Z,0.19
2018-09-24T17:17:16.044Z,0.20
2018-09-24T17:27:15.159Z,0.09
2018-09-24T17:37:15.156Z,0.02
2018-09-24T17:47:15.293Z,0.03
2018-09-24T17:57:15.129Z,0.01
2018-09-24T18:07:15.182Z,0.00
2018-09-24T18:17:15.301Z,0.00
2018-09-24T18:27:15.176Z,0.00
2018-09-24T18:37:15.308Z,0.01
2018-09-24T18:47:15.818Z,0.00
2018-09-24T18:57:15.173Z,0.00
2018-09-24T19:07:15.173Z,0.00
2018-09-24T19:17:15.136Z,0.00
2018-09-24T19:27:15.274Z,0.00
2018-09-24T19:37:15.201Z,0.00
2018-09-24T19:47:15.251Z,0.00
2018-09-24T19:57:15.272Z,0.00
2018-09-24T20:07:15.220Z,0.00
2018-09-24T20:17:15.159Z,0.00
2018-09-24T20:27:15.224Z,0.00
2018-09-24T20:37:15.026Z,0.00
2018-09-24T20:47:15.245Z,0.00
2018-09-24T20:57:15.137Z,0.00
2018-09-24T21:07:15.013Z,0.00
2018-09-24T21:17:15.149Z,0.00
2018-09-24T21:27:15.165Z,0.00
2018-09-24T21:37:15.127Z,0.00
2018-09-24T21:47:15.189Z,0.10
2018-09-24T21:57:15.162Z,0.03
2018-09-24T22:07:15.232Z,0.00
2018-09-24T22:17:15.135Z,0.00
2018-09-24T22:27:15.235Z,0.00
2018-09-24T22:37:15.182Z,0.00
2018-09-24T22:47:15.143Z,0.00
2018-09-24T22:57:15.073Z,0.00
2018-09-24T23:07:15.202Z,0.00
2018-09-24T23:17:15.399Z,0.00
2018-09-24T23:27:15.126Z,0.00
2018-09-24T23:37:15.177Z,0.00
2018-09-24T23:47:15.136Z,0.00
2018-09-24T23:57:15.244Z,0.00
